Terminal Aerodrome Forecast
Issued by NWS

Current Version | Previous Version | Graphics & Text | Print | Product List | Glossary On
Versions: 1 2 3 4 5 6 7 8 9 10 11 12 13 14 15 16 17 18 19 20 21 22 23
000
FTUS41 KRLX 312100 AAA
TAFCKB
TAF AMD
KCKB 312116Z 3121/0118 22009KT P6SM BKN035
     FM010600 20005KT 4SM BR OVC020
     FM010800 20003KT 4SM BR OVC014
     FM011100 21003KT 5SM BR BKN023=

USA.gov is the U.S. government's official web portal to all federal, state and local government web resources and services.